createdAt,value
2022-10-09T00:00:03.084Z,11.10
2022-10-09T00:05:27.166Z,11.10
2022-10-09T00:10:23.082Z,11.02
2022-10-09T00:15:20.823Z,11.00
2022-10-09T00:20:16.923Z,11.00
2022-10-09T00:25:12.379Z,11.00
2022-10-09T00:30:11.789Z,11.00
2022-10-09T00:35:09.169Z,11.10
2022-10-09T00:40:05.710Z,11.10
2022-10-09T00:45:04.326Z,11.10
2022-10-09T00:50:05.660Z,11.10
2022-10-09T00:55:03.953Z,11.10
2022-10-09T01:00:01.782Z,11.10
2022-10-09T01:04:57.104Z,11.00
2022-10-09T01:10:04.339Z,11.00
2022-10-09T01:15:18.739Z,10.90
2022-10-09T01:20:49.619Z,10.90
2022-10-09T01:25:58.529Z,10.90
2022-10-09T01:30:54.328Z,10.80
2022-10-09T01:35:54.775Z,10.80
2022-10-09T01:40:53.400Z,10.80
2022-10-09T01:45:50.382Z,10.74
2022-10-09T01:50:56.046Z,10.70
2022-10-09T01:56:04.893Z,10.60
2022-10-09T02:01:09.320Z,10.58
2022-10-09T02:06:09.487Z,10.50
2022-10-09T02:11:06.193Z,10.50
2022-10-09T02:16:12.651Z,10.40
2022-10-09T02:21:19.151Z,10.40
2022-10-09T02:26:15.206Z,10.30
2022-10-09T02:31:20.385Z,10.20
2022-10-09T02:36:16.315Z,10.10
2022-10-09T02:41:11.256Z,10.00
2022-10-09T02:46:07.312Z,9.88
2022-10-09T02:51:02.519Z,9.80
2022-10-09T02:55:57.918Z,9.70
2022-10-09T03:00:53.936Z,9.60
2022-10-09T03:05:59.155Z,9.50
2022-10-09T03:10:54.407Z,9.44
2022-10-09T03:15:49.825Z,9.40
2022-10-09T03:20:45.230Z,9.30
2022-10-09T03:25:40.716Z,9.20
2022-10-09T03:30:42.924Z,9.10
2022-10-09T03:35:38.281Z,9.06
2022-10-09T03:40:34.320Z,9.00
2022-10-09T03:45:29.757Z,8.92
2022-10-09T03:50:24.832Z,8.90
2022-10-09T03:55:20.117Z,8.90
2022-10-09T04:00:18.698Z,8.90
2022-10-09T04:05:14.158Z,8.90
2022-10-09T04:10:11.914Z,8.90
2022-10-09T04:15:11.247Z,8.90
2022-10-09T04:20:08.896Z,8.90
2022-10-09T04:25:04.867Z,8.90
2022-10-09T04:30:02.552Z,8.90
2022-10-09T04:34:58.595Z,8.86
2022-10-09T04:39:53.964Z,8.84
2022-10-09T04:44:49.219Z,8.90
2022-10-09T04:49:48.411Z,8.84
2022-10-09T04:54:43.087Z,8.80
2022-10-09T04:59:41.472Z,8.80
2022-10-09T05:04:37.722Z,8.80
2022-10-09T05:09:34.565Z,8.80
2022-10-09T05:14:29.754Z,8.80
2022-10-09T05:19:25.377Z,8.90
2022-10-09T05:24:23.373Z,8.88
2022-10-09T05:29:18.639Z,8.90
2022-10-09T05:34:13.526Z,8.90
2022-10-09T05:39:08.509Z,8.90
2022-10-09T05:44:04.327Z,8.90
2022-10-09T05:49:04.730Z,9.00
2022-10-09T05:54:02.218Z,9.00
2022-10-09T05:59:00.388Z,9.10
2022-10-09T06:03:58.764Z,9.10
2022-10-09T06:08:54.724Z,9.14
2022-10-09T06:13:52.105Z,9.20
2022-10-09T06:18:49.886Z,9.22
2022-10-09T06:23:50.751Z,9.30
2022-10-09T06:28:48.684Z,9.32
2022-10-09T06:33:46.223Z,9.40
2022-10-09T06:38:42.548Z,9.40
2022-10-09T06:43:38.078Z,9.40
2022-10-09T06:48:35.437Z,9.46
2022-10-09T06:53:33.897Z,9.50
2022-10-09T06:58:29.736Z,9.50
2022-10-09T07:03:24.901Z,9.50
2022-10-09T07:08:21.207Z,9.58
2022-10-09T07:13:16.832Z,9.60
2022-10-09T07:18:11.787Z,9.70
2022-10-09T07:23:07.517Z,9.70
2022-10-09T07:28:03.070Z,9.80
2022-10-09T07:32:59.113Z,9.80
2022-10-09T07:37:54.149Z,9.80
2022-10-09T07:42:50.539Z,9.90
2022-10-09T07:47:46.500Z,10.00
2022-10-09T07:52:41.948Z,10.10
2022-10-09T07:57:37.222Z,10.20
2022-10-09T08:02:32.557Z,10.30
2022-10-09T08:07:31.377Z,10.40
2022-10-09T08:12:30.762Z,10.36
2022-10-09T08:17:26.005Z,10.30
2022-10-09T08:22:21.761Z,10.30
2022-10-09T08:27:17.445Z,10.30
2022-10-09T08:32:12.676Z,10.32
2022-10-09T08:37:08.514Z,10.30
2022-10-09T08:42:03.182Z,10.28
2022-10-09T08:47:08.262Z,10.30
2022-10-09T08:52:17.311Z,10.40
2022-10-09T08:57:17.041Z,10.42
2022-10-09T09:02:35.692Z,10.42
2022-10-09T09:07:39.694Z,10.50
2022-10-09T09:12:47.630Z,10.60
2022-10-09T09:17:52.099Z,10.70
2022-10-09T09:22:51.067Z,10.90
2022-10-09T09:27:47.495Z,11.00
2022-10-09T09:32:57.018Z,11.10
2022-10-09T09:37:54.287Z,11.30
2022-10-09T09:42:50.857Z,11.40
2022-10-09T09:47:54.922Z,11.40
2022-10-09T09:52:50.943Z,11.50
2022-10-09T09:57:47.564Z,11.50
2022-10-09T10:02:43.506Z,11.60
2022-10-09T10:07:40.195Z,11.70
2022-10-09T10:12:42.031Z,11.70
2022-10-09T10:17:39.412Z,11.70
2022-10-09T10:22:35.978Z,11.68
2022-10-09T10:27:38.677Z,11.60
2022-10-09T10:32:45.246Z,11.52
2022-10-09T10:37:50.460Z,11.60
2022-10-09T10:43:01.592Z,11.60
2022-10-09T10:48:00.426Z,11.50
2022-10-09T10:53:14.814Z,11.40
2022-10-09T10:58:25.789Z,11.40
2022-10-09T11:03:58.054Z,11.32
2022-10-09T11:09:15.122Z,11.30
2022-10-09T11:14:29.497Z,11.30
2022-10-09T11:19:52.123Z,11.40
2022-10-09T11:25:18.974Z,11.40
2022-10-09T11:30:17.811Z,11.50
2022-10-09T11:35:22.548Z,11.50
2022-10-09T11:40:22.837Z,11.60
2022-10-09T11:45:29.520Z,11.70
2022-10-09T11:50:43.582Z,11.70
2022-10-09T11:55:52.466Z,11.70
2022-10-09T12:01:13.832Z,11.70
2022-10-09T12:06:13.714Z,11.70
2022-10-09T12:11:17.953Z,11.70
2022-10-09T12:16:34.295Z,11.70
2022-10-09T12:21:38.597Z,11.80
2022-10-09T12:26:35.254Z,11.80
2022-10-09T12:31:36.567Z,11.90
2022-10-09T12:36:33.659Z,12.00
2022-10-09T12:41:35.734Z,12.10
2022-10-09T12:46:37.405Z,12.20
2022-10-09T12:51:38.126Z,12.42
2022-10-09T12:56:37.893Z,12.70
2022-10-09T13:01:35.113Z,12.80
2022-10-09T13:06:42.950Z,12.98
2022-10-09T13:11:44.888Z,13.20
2022-10-09T13:16:48.241Z,13.20
2022-10-09T13:21:43.516Z,13.30
2022-10-09T13:26:44.751Z,13.30
2022-10-09T13:31:45.947Z,13.30
2022-10-09T13:36:42.095Z,13.42
2022-10-09T13:41:40.241Z,13.50
2022-10-09T13:46:35.748Z,13.40
2022-10-09T13:51:32.269Z,13.74
2022-10-09T13:56:28.762Z,14.30
2022-10-09T14:01:24.864Z,14.44
2022-10-09T14:06:21.745Z,14.40
2022-10-09T14:11:17.018Z,14.20
2022-10-09T14:16:14.921Z,14.20
2022-10-09T14:21:15.976Z,14.20
2022-10-09T14:26:11.606Z,14.06
2022-10-09T14:31:11.441Z,13.90
2022-10-09T14:36:15.733Z,13.70
2022-10-09T14:41:14.400Z,13.40
2022-10-09T14:46:16.300Z,13.20
2022-10-09T14:51:15.783Z,13.00
2022-10-09T14:56:16.921Z,13.00
2022-10-09T15:01:19.188Z,12.90
2022-10-09T15:06:23.516Z,12.80
2022-10-09T15:11:20.308Z,12.62
2022-10-09T15:16:18.614Z,12.50
2022-10-09T15:21:18.669Z,12.40
2022-10-09T15:26:14.540Z,12.30
2022-10-09T15:31:23.796Z,12.18
2022-10-09T15:36:19.263Z,12.00
2022-10-09T15:41:24.851Z,11.90
2022-10-09T15:46:20.861Z,11.70
2022-10-09T15:51:18.125Z,11.60
2022-10-09T15:56:16.734Z,11.40
2022-10-09T16:01:15.854Z,11.20
2022-10-09T16:06:14.210Z,11.10
2022-10-09T16:11:16.342Z,10.90
2022-10-09T16:16:20.716Z,10.80
2022-10-09T16:21:19.183Z,10.60
2022-10-09T16:26:18.709Z,10.50
2022-10-09T16:31:22.704Z,10.34
2022-10-09T16:36:19.174Z,10.20
2022-10-09T16:41:20.162Z,10.10
2022-10-09T16:46:23.987Z,10.02
2022-10-09T16:51:25.426Z,9.90
2022-10-09T16:56:24.069Z,9.90
2022-10-09T17:01:19.437Z,9.80
2022-10-09T17:06:19.075Z,9.70
2022-10-09T17:11:16.608Z,9.60
2022-10-09T17:16:18.416Z,9.50
2022-10-09T17:21:19.365Z,9.40
2022-10-09T17:26:18.129Z,9.30
2022-10-09T17:31:17.105Z,9.30
2022-10-09T17:36:14.216Z,9.20
2022-10-09T17:41:19.800Z,9.10
2022-10-09T17:46:17.558Z,9.00
2022-10-09T17:51:18.024Z,8.90
2022-10-09T17:56:14.311Z,8.80
2022-10-09T18:01:11.788Z,8.70
2022-10-09T18:06:14.348Z,8.60
2022-10-09T18:11:14.477Z,8.50
2022-10-09T18:16:13.075Z,8.50
2022-10-09T18:21:16.222Z,8.40
2022-10-09T18:26:15.114Z,8.32
2022-10-09T18:31:14.328Z,8.30
2022-10-09T18:36:13.793Z,8.20
2022-10-09T18:41:12.044Z,8.18
2022-10-09T18:46:09.170Z,8.10
2022-10-09T18:51:07.554Z,8.06
2022-10-09T18:56:03.667Z,8.00
2022-10-09T19:00:59.229Z,7.90
2022-10-09T19:05:53.791Z,7.84
2022-10-09T19:10:56.302Z,7.80
2022-10-09T19:15:58.162Z,7.70
2022-10-09T19:20:54.135Z,7.60
2022-10-09T19:25:52.427Z,7.60
2022-10-09T19:30:49.055Z,7.50
2022-10-09T19:35:50.384Z,7.42
2022-10-09T19:40:46.290Z,7.40
2022-10-09T19:45:42.846Z,7.30
2022-10-09T19:50:43.149Z,7.20
2022-10-09T19:55:39.500Z,7.10
2022-10-09T20:00:40.899Z,7.00
2022-10-09T20:05:36.570Z,7.00
2022-10-09T20:10:34.900Z,6.90
2022-10-09T20:15:30.229Z,6.88
2022-10-09T20:20:27.264Z,6.80
2022-10-09T20:25:24.016Z,6.78
2022-10-09T20:30:20.551Z,6.70
2022-10-09T20:35:16.607Z,6.60
2022-10-09T20:40:12.438Z,6.60
2022-10-09T20:45:10.175Z,6.50
2022-10-09T20:50:10.813Z,6.40
2022-10-09T20:55:08.213Z,6.30
2022-10-09T21:00:07.200Z,6.30
2022-10-09T21:05:08.036Z,6.20
2022-10-09T21:10:06.266Z,6.10
2022-10-09T21:15:06.266Z,6.10
2022-10-09T21:20:05.455Z,6.00
2022-10-09T21:25:02.074Z,5.90
2022-10-09T21:29:57.070Z,5.86
2022-10-09T21:34:53.343Z,5.80
2022-10-09T21:39:51.356Z,5.76
2022-10-09T21:44:46.344Z,5.70
2022-10-09T21:49:42.509Z,5.60
2022-10-09T21:54:40.366Z,5.60
2022-10-09T21:59:37.335Z,5.50
2022-10-09T22:04:33.000Z,5.50
2022-10-09T22:09:27.917Z,5.40
2022-10-09T22:14:23.248Z,5.40
2022-10-09T22:19:18.757Z,5.30
2022-10-09T22:24:13.736Z,5.30
2022-10-09T22:29:10.013Z,5.30
2022-10-09T22:34:06.115Z,5.20
2022-10-09T22:39:05.072Z,5.20
2022-10-09T22:44:02.337Z,5.10
2022-10-09T22:48:58.323Z,5.10
2022-10-09T22:53:56.395Z,5.00
2022-10-09T22:58:53.866Z,5.00
2022-10-09T23:03:49.617Z,4.90
2022-10-09T23:08:48.282Z,4.90
2022-10-09T23:13:43.942Z,4.88
2022-10-09T23:18:39.088Z,4.80
2022-10-09T23:23:35.252Z,4.80
2022-10-09T23:28:30.493Z,4.76
2022-10-09T23:33:25.865Z,4.70
2022-10-09T23:38:21.732Z,4.70
2022-10-09T23:43:17.257Z,4.70
2022-10-09T23:48:12.454Z,4.66
2022-10-09T23:53:07.650Z,4.60
2022-10-09T23:58:04.073Z,4.60
